sensor_id;sensor_type;location;lat;lon;timestamp;pressure;altitude;pressure_sealevel;temperature;humidity
69173;BME280;56280;49.662;8.408;2023-07-29T00:00:25;100091.44;;;20.65;86.69
69173;BME280;56280;49.662;8.408;2023-07-29T00:02:51;100105.97;;;20.70;86.90
69173;BME280;56280;49.662;8.408;2023-07-29T00:05:16;100108.47;;;20.72;87.22
69173;BME280;56280;49.662;8.408;2023-07-29T00:07:42;100087.72;;;20.72;87.47
69173;BME280;56280;49.662;8.408;2023-07-29T00:10:07;100065.25;;;20.65;87.55
69173;BME280;56280;49.662;8.408;2023-07-29T00:12:33;100089.84;;;20.77;87.93
69173;BME280;56280;49.662;8.408;2023-07-29T00:14:58;100077.13;;;20.71;88.12
69173;BME280;56280;49.662;8.408;2023-07-29T00:17:26;100097.31;;;20.82;87.84
69173;BME280;56280;49.662;8.408;2023-07-29T00:19:51;100092.34;;;20.85;88.21
69173;BME280;56280;49.662;8.408;2023-07-29T00:22:16;100086.94;;;20.79;88.39
69173;BME280;56280;49.662;8.408;2023-07-29T00:24:41;100081.72;;;20.77;88.51
69173;BME280;56280;49.662;8.408;2023-07-29T00:27:07;100066.13;;;20.72;88.59
69173;BME280;56280;49.662;8.408;2023-07-29T00:29:32;100070.94;;;20.77;88.82
69173;BME280;56280;49.662;8.408;2023-07-29T00:31:57;100053.25;;;20.74;88.64
69173;BME280;56280;49.662;8.408;2023-07-29T00:34:22;100047.66;;;20.69;88.53
69173;BME280;56280;49.662;8.408;2023-07-29T00:36:48;100070.38;;;20.95;88.24
69173;BME280;56280;49.662;8.408;2023-07-29T00:39:13;100001.00;;;20.47;87.98
69173;BME280;56280;49.662;8.408;2023-07-29T00:41:39;100042.06;;;20.77;87.76
69173;BME280;56280;49.662;8.408;2023-07-29T00:44:04;100043.56;;;20.87;87.89
69173;BME280;56280;49.662;8.408;2023-07-29T00:46:33;100046.06;;;20.88;87.63
69173;BME280;56280;49.662;8.408;2023-07-29T00:48:58;100035.22;;;20.82;87.65
69173;BME280;56280;49.662;8.408;2023-07-29T00:51:23;100053.56;;;20.93;87.64
69173;BME280;56280;49.662;8.408;2023-07-29T00:53:49;100060.81;;;20.99;87.16
69173;BME280;56280;49.662;8.408;2023-07-29T00:56:14;100064.56;;;20.98;87.13
69173;BME280;56280;49.662;8.408;2023-07-29T00:58:39;100036.69;;;20.84;87.42
69173;BME280;56280;49.662;8.408;2023-07-29T01:01:05;100036.09;;;20.89;87.84
69173;BME280;56280;49.662;8.408;2023-07-29T01:03:30;100027.13;;;20.82;87.63
69173;BME280;56280;49.662;8.408;2023-07-29T01:06:29;100049.78;;;20.94;87.62
69173;BME280;56280;49.662;8.408;2023-07-29T01:09:04;100058.75;;;21.01;87.35
69173;BME280;56280;49.662;8.408;2023-07-29T01:11:37;100055.00;;;21.02;87.23
69173;BME280;56280;49.662;8.408;2023-07-29T01:14:40;100045.88;;;21.03;87.51
69173;BME280;56280;49.662;8.408;2023-07-29T01:17:13;100039.88;;;21.01;86.97
69173;BME280;56280;49.662;8.408;2023-07-29T01:22:19;100011.38;;;20.92;87.46
69173;BME280;56280;49.662;8.408;2023-07-29T01:24:46;100042.38;;;21.09;87.32
69173;BME280;56280;49.662;8.408;2023-07-29T01:27:11;100053.78;;;21.11;87.27
69173;BME280;56280;49.662;8.408;2023-07-29T01:29:37;100030.72;;;21.09;87.29
69173;BME280;56280;49.662;8.408;2023-07-29T01:32:08;100019.72;;;21.10;87.12
69173;BME280;56280;49.662;8.408;2023-07-29T01:34:41;100032.00;;;21.20;87.16
69173;BME280;56280;49.662;8.408;2023-07-29T01:37:14;100012.47;;;21.04;89.66
69173;BME280;56280;49.662;8.408;2023-07-29T01:39:40;100042.59;;;21.15;91.00
69173;BME280;56280;49.662;8.408;2023-07-29T01:42:08;100025.50;;;21.01;91.12
69173;BME280;56280;49.662;8.408;2023-07-29T01:44:34;100031.31;;;20.98;91.21
69173;BME280;56280;49.662;8.408;2023-07-29T01:47:00;100039.63;;;20.96;91.57
69173;BME280;56280;49.662;8.408;2023-07-29T01:49:26;100040.66;;;20.95;91.89
69173;BME280;56280;49.662;8.408;2023-07-29T01:51:51;100035.47;;;20.93;92.09
69173;BME280;56280;49.662;8.408;2023-07-29T01:54:16;100026.13;;;20.96;92.42
69173;BME280;56280;49.662;8.408;2023-07-29T01:56:41;100019.69;;;20.97;92.55
69173;BME280;56280;49.662;8.408;2023-07-29T01:59:07;100000.56;;;20.79;92.24
69173;BME280;56280;49.662;8.408;2023-07-29T02:01:32;100011.59;;;20.97;92.18
69173;BME280;56280;49.662;8.408;2023-07-29T02:03:57;100012.00;;;20.94;92.36
69173;BME280;56280;49.662;8.408;2023-07-29T02:06:22;100020.09;;;21.01;92.16
69173;BME280;56280;49.662;8.408;2023-07-29T02:08:48;100012.63;;;20.96;91.96
69173;BME280;56280;49.662;8.408;2023-07-29T02:11:13;100010.50;;;20.85;92.01
69173;BME280;56280;49.662;8.408;2023-07-29T02:13:38;100010.13;;;20.94;92.39
69173;BME280;56280;49.662;8.408;2023-07-29T02:16:04;99992.88;;;20.82;91.99
69173;BME280;56280;49.662;8.408;2023-07-29T02:18:29;100002.41;;;20.85;91.92
69173;BME280;56280;49.662;8.408;2023-07-29T02:20:54;100011.16;;;20.87;92.29
69173;BME280;56280;49.662;8.408;2023-07-29T02:23:19;100017.59;;;20.86;91.84
69173;BME280;56280;49.662;8.408;2023-07-29T02:25:45;100018.00;;;20.83;91.93
69173;BME280;56280;49.662;8.408;2023-07-29T02:28:10;100011.97;;;20.81;91.95
69173;BME280;56280;49.662;8.408;2023-07-29T02:30:36;100015.91;;;20.78;91.41
69173;BME280;56280;49.662;8.408;2023-07-29T02:33:01;99995.47;;;20.62;92.10
69173;BME280;56280;49.662;8.408;2023-07-29T02:35:27;99987.00;;;20.65;92.21
69173;BME280;56280;49.662;8.408;2023-07-29T02:37:52;100003.44;;;20.77;92.05
69173;BME280;56280;49.662;8.408;2023-07-29T02:40:18;100001.53;;;20.64;91.99
69173;BME280;56280;49.662;8.408;2023-07-29T02:42:43;100005.91;;;20.72;92.30
69173;BME280;56280;49.662;8.408;2023-07-29T02:45:08;100013.59;;;20.75;92.29
69173;BME280;56280;49.662;8.408;2023-07-29T02:47:37;99996.50;;;20.61;92.40
69173;BME280;56280;49.662;8.408;2023-07-29T02:50:03;100007.16;;;20.69;92.47
69173;BME280;56280;49.662;8.408;2023-07-29T02:52:28;99998.38;;;20.61;92.40
69173;BME280;56280;49.662;8.408;2023-07-29T02:54:53;100005.91;;;20.72;92.30
69173;BME280;56280;49.662;8.408;2023-07-29T02:57:19;99988.66;;;20.66;92.33
69173;BME280;56280;49.662;8.408;2023-07-29T02:59:44;99992.41;;;20.72;91.69
69173;BME280;56280;49.662;8.408;2023-07-29T03:02:09;99990.56;;;20.72;91.19
69173;BME280;56280;49.662;8.408;2023-07-29T03:04:34;99984.78;;;20.82;91.05
69173;BME280;56280;49.662;8.408;2023-07-29T03:07:00;99987.47;;;20.89;91.14
69173;BME280;56280;49.662;8.408;2023-07-29T03:09:26;99977.28;;;20.84;90.11
69173;BME280;56280;49.662;8.408;2023-07-29T03:11:51;99966.88;;;20.74;90.63
69173;BME280;56280;49.662;8.408;2023-07-29T03:14:17;99963.75;;;20.64;90.65
69173;BME280;56280;49.662;8.408;2023-07-29T03:16:43;99945.44;;;20.53;91.12
69173;BME280;56280;49.662;8.408;2023-07-29T03:19:08;99966.69;;;20.69;91.22
69173;BME280;56280;49.662;8.408;2023-07-29T03:21:33;99930.88;;;20.47;91.30
69173;BME280;56280;49.662;8.408;2023-07-29T03:23:58;99961.88;;;20.65;91.04
69173;BME280;56280;49.662;8.408;2023-07-29T03:26:24;99932.34;;;20.50;91.01
69173;BME280;56280;49.662;8.408;2023-07-29T03:28:50;99954.81;;;20.70;90.89
69173;BME280;56280;49.662;8.408;2023-07-29T03:31:15;99983.06;;;20.68;90.94
69173;BME280;56280;49.662;8.408;2023-07-29T03:33:41;99986.94;;;20.58;90.98
69173;BME280;56280;49.662;8.408;2023-07-29T03:36:06;99955.94;;;20.34;91.29
69173;BME280;56280;49.662;8.408;2023-07-29T03:38:31;99979.66;;;20.59;91.58
69173;BME280;56280;49.662;8.408;2023-07-29T03:40:58;99966.25;;;20.66;91.29
69173;BME280;56280;49.662;8.408;2023-07-29T03:43:23;99948.97;;;20.60;91.12
69173;BME280;56280;49.662;8.408;2023-07-29T03:45:48;99955.25;;;20.67;91.20
69173;BME280;56280;49.662;8.408;2023-07-29T03:48:14;99951.91;;;20.65;91.07
69173;BME280;56280;49.662;8.408;2023-07-29T03:50:39;99951.31;;;20.70;90.73
69173;BME280;56280;49.662;8.408;2023-07-29T03:53:04;99979.94;;;20.64;90.99
69173;BME280;56280;49.662;8.408;2023-07-29T03:55:30;99976.47;;;20.77;90.66
69173;BME280;56280;49.662;8.408;2023-07-29T03:57:57;99971.91;;;20.84;90.56
69173;BME280;56280;49.662;8.408;2023-07-29T04:00:22;99974.19;;;20.81;90.41
69173;BME280;56280;49.662;8.408;2023-07-29T04:02:47;99938.78;;;20.62;90.55
69173;BME280;56280;49.662;8.408;2023-07-29T04:05:13;99978.75;;;20.87;90.13
69173;BME280;56280;49.662;8.408;2023-07-29T04:07:38;99961.91;;;20.85;89.82
69173;BME280;56280;49.662;8.408;2023-07-29T04:10:05;99963.59;;;20.92;90.23
69173;BME280;56280;49.662;8.408;2023-07-29T04:12:30;99954.06;;;20.90;90.01
69173;BME280;56280;49.662;8.408;2023-07-29T04:14:56;99956.13;;;20.94;90.27
69173;BME280;56280;49.662;8.408;2023-07-29T04:17:21;99965.69;;;20.97;90.46
69173;BME280;56280;49.662;8.408;2023-07-29T04:19:47;99948.25;;;20.93;90.10
69173;BME280;56280;49.662;8.408;2023-07-29T04:22:12;99934.50;;;20.88;89.95
69173;BME280;56280;49.662;8.408;2023-07-29T04:24:37;99948.03;;;20.94;89.59
69173;BME280;56280;49.662;8.408;2023-07-29T04:27:03;99946.59;;;20.92;89.79
69173;BME280;56280;49.662;8.408;2023-07-29T04:29:28;99945.31;;;20.81;90.33
69173;BME280;56280;49.662;8.408;2023-07-29T04:31:54;99942.00;;;20.79;90.27
69173;BME280;56280;49.662;8.408;2023-07-29T04:34:19;99943.03;;;20.85;90.25
69173;BME280;56280;49.662;8.408;2023-07-29T04:36:48;99937.00;;;20.83;90.04
69173;BME280;56280;49.662;8.408;2023-07-29T04:39:13;99943.66;;;20.87;90.13
69173;BME280;56280;49.662;8.408;2023-07-29T04:41:39;99940.72;;;20.82;90.15
69173;BME280;56280;49.662;8.408;2023-07-29T04:44:05;99937.63;;;20.78;90.47
69173;BME280;56280;49.662;8.408;2023-07-29T04:46:30;99951.91;;;20.72;90.94
69173;BME280;56280;49.662;8.408;2023-07-29T04:48:55;99945.31;;;20.81;90.99
69173;BME280;56280;49.662;8.408;2023-07-29T04:51:21;99954.47;;;20.87;91.14
69173;BME280;56280;49.662;8.408;2023-07-29T04:53:46;99935.31;;;20.82;91.60
69173;BME280;56280;49.662;8.408;2023-07-29T04:56:12;99951.97;;;20.99;91.13
69173;BME280;56280;49.662;8.408;2023-07-29T04:58:37;99954.06;;;21.03;90.35
69173;BME280;56280;49.662;8.408;2023-07-29T05:01:03;99964.47;;;21.20;90.34
69173;BME280;56280;49.662;8.408;2023-07-29T05:03:29;99966.56;;;21.18;89.99
69173;BME280;56280;49.662;8.408;2023-07-29T05:05:54;99964.25;;;21.28;90.19
69173;BME280;56280;49.662;8.408;2023-07-29T05:08:20;99960.94;;;21.33;89.83
69173;BME280;56280;49.662;8.408;2023-07-29T05:10:50;99973.63;;;21.45;89.59
69173;BME280;56280;49.662;8.408;2023-07-29T05:13:15;99974.25;;;21.41;89.00
69173;BME280;56280;49.662;8.408;2023-07-29T05:15:41;99975.47;;;21.31;89.48
69173;BME280;56280;49.662;8.408;2023-07-29T05:18:06;99986.91;;;21.47;89.46
69173;BME280;56280;49.662;8.408;2023-07-29T05:20:31;99981.53;;;21.40;88.86
69173;BME280;56280;49.662;8.408;2023-07-29T05:22:56;99982.75;;;21.44;89.05
69173;BME280;56280;49.662;8.408;2023-07-29T05:25:22;99972.16;;;21.43;89.29
69173;BME280;56280;49.662;8.408;2023-07-29T05:27:47;99975.09;;;21.55;88.81
69173;BME280;56280;49.662;8.408;2023-07-29T05:30:12;99969.47;;;21.63;88.69
69173;BME280;56280;49.662;8.408;2023-07-29T05:32:38;99963.66;;;21.66;88.16
69173;BME280;56280;49.662;8.408;2023-07-29T05:35:03;99969.06;;;21.66;87.88
69173;BME280;56280;49.662;8.408;2023-07-29T05:37:29;99968.03;;;21.74;87.89
69173;BME280;56280;49.662;8.408;2023-07-29T05:39:54;99969.06;;;21.73;87.83
69173;BME280;56280;49.662;8.408;2023-07-29T05:42:19;99947.03;;;21.49;87.69
69173;BME280;56280;49.662;8.408;2023-07-29T05:44:45;99965.75;;;21.51;88.30
69173;BME280;56280;49.662;8.408;2023-07-29T05:47:10;99968.44;;;21.37;89.35
69173;BME280;56280;49.662;8.408;2023-07-29T05:49:35;99964.47;;;21.46;88.92
69173;BME280;56280;49.662;8.408;2023-07-29T05:52:01;99941.19;;;21.19;88.87
69173;BME280;56280;49.662;8.408;2023-07-29T05:54:26;99974.03;;;21.42;89.10
69173;BME280;56280;49.662;8.408;2023-07-29T05:56:51;99955.34;;;21.27;89.22
69173;BME280;56280;49.662;8.408;2023-07-29T05:59:17;99963.84;;;21.44;89.09
69173;BME280;56280;49.662;8.408;2023-07-29T06:01:42;99963.63;;;21.46;88.35
69173;BME280;56280;49.662;8.408;2023-07-29T06:04:07;99979.25;;;21.57;88.70
69173;BME280;56280;49.662;8.408;2023-07-29T06:06:33;99972.81;;;21.58;88.50
69173;BME280;56280;49.662;8.408;2023-07-29T06:08:58;99966.97;;;21.68;87.99
69173;BME280;56280;49.662;8.408;2023-07-29T06:11:23;99979.03;;;21.72;88.23
69173;BME280;56280;49.662;8.408;2023-07-29T06:13:48;99974.22;;;21.47;88.79
69173;BME280;56280;49.662;8.408;2023-07-29T06:16:14;99956.19;;;21.48;89.33
69173;BME280;56280;49.662;8.408;2023-07-29T06:18:39;99973.63;;;21.72;88.81
69173;BME280;56280;49.662;8.408;2023-07-29T06:21:04;99970.28;;;21.83;88.44
69173;BME280;56280;49.662;8.408;2023-07-29T06:23:33;99985.22;;;21.93;88.13
69173;BME280;56280;49.662;8.408;2023-07-29T06:25:58;99986.91;;;21.94;88.33
69173;BME280;56280;49.662;8.408;2023-07-29T06:28:25;99980.63;;;22.07;88.19
69173;BME280;56280;49.662;8.408;2023-07-29T06:30:50;99969.63;;;22.01;87.90
69173;BME280;56280;49.662;8.408;2023-07-29T06:33:16;99970.47;;;21.89;88.24
69173;BME280;56280;49.662;8.408;2023-07-29T06:35:41;99981.50;;;21.94;88.82
69173;BME280;56280;49.662;8.408;2023-07-29T06:38:06;99968.59;;;21.96;89.08
69173;BME280;56280;49.662;8.408;2023-07-29T06:40:32;99983.63;;;21.78;89.92
69173;BME280;56280;49.662;8.408;2023-07-29T06:42:57;100005.66;;;21.75;91.08
69173;BME280;56280;49.662;8.408;2023-07-29T06:45:22;99990.06;;;21.51;92.50
69173;BME280;56280;49.662;8.408;2023-07-29T06:47:47;100002.13;;;21.68;93.44
69173;BME280;56280;49.662;8.408;2023-07-29T06:50:13;100001.50;;;21.73;92.85
69173;BME280;56280;49.662;8.408;2023-07-29T06:52:38;100008.97;;;21.77;92.84
69173;BME280;56280;49.662;8.408;2023-07-29T06:55:05;100009.78;;;21.84;92.37
69173;BME280;56280;49.662;8.408;2023-07-29T06:57:31;100026.00;;;21.98;92.51
69173;BME280;56280;49.662;8.408;2023-07-29T06:59:56;100023.88;;;22.13;93.00
69173;BME280;56280;49.662;8.408;2023-07-29T07:02:21;100005.78;;;22.07;92.57
69173;BME280;56280;49.662;8.408;2023-07-29T07:04:46;100010.03;;;21.56;93.37
69173;BME280;56280;49.662;8.408;2023-07-29T07:07:12;100064.25;;;20.66;100.00
69173;BME280;56280;49.662;8.408;2023-07-29T07:09:37;100075.31;;;20.43;100.00
69173;BME280;56280;49.662;8.408;2023-07-29T07:12:02;100059.50;;;20.82;100.00
69173;BME280;56280;49.662;8.408;2023-07-29T07:14:28;100052.13;;;21.10;100.00
69173;BME280;56280;49.662;8.408;2023-07-29T07:16:53;100060.88;;;21.26;100.00
69173;BME280;56280;49.662;8.408;2023-07-29T07:19:18;100047.19;;;21.34;100.00
69173;BME280;56280;49.662;8.408;2023-07-29T07:21:44;100038.25;;;21.40;100.00
69173;BME280;56280;49.662;8.408;2023-07-29T07:24:09;100060.09;;;21.45;100.00
69173;BME280;56280;49.662;8.408;2023-07-29T07:26:34;100045.72;;;21.25;100.00
69173;BME280;56280;49.662;8.408;2023-07-29T07:28:59;100054.47;;;21.40;100.00
69173;BME280;56280;49.662;8.408;2023-07-29T07:31:25;100043.25;;;21.43;100.00
69173;BME280;56280;49.662;8.408;2023-07-29T07:33:52;100047.59;;;21.44;100.00
69173;BME280;56280;49.662;8.408;2023-07-29T07:36:17;100050.91;;;21.33;100.00
69173;BME280;56280;49.662;8.408;2023-07-29T07:38:42;100063.41;;;21.41;100.00
69173;BME280;56280;49.662;8.408;2023-07-29T07:41:07;100048.00;;;21.28;100.00
69173;BME280;56280;49.662;8.408;2023-07-29T07:43:33;100064.81;;;21.23;100.00
69173;BME280;56280;49.662;8.408;2023-07-29T07:45:59;100075.28;;;21.40;100.00
69173;BME280;56280;49.662;8.408;2023-07-29T07:48:25;100076.72;;;21.42;100.00
69173;BME280;56280;49.662;8.408;2023-07-29T07:50:50;100078.19;;;21.45;100.00
69173;BME280;56280;49.662;8.408;2023-07-29T07:53:15;100067.16;;;21.46;100.00
69173;BME280;56280;49.662;8.408;2023-07-29T07:55:43;100058.19;;;21.39;100.00
69173;BME280;56280;49.662;8.408;2023-07-29T07:58:08;100064.16;;;21.01;99.88
69173;BME280;56280;49.662;8.408;2023-07-29T08:00:34;100050.19;;;20.91;99.74
69173;BME280;56280;49.662;8.408;2023-07-29T08:02:59;100042.16;;;20.56;97.85
69173;BME280;56280;49.662;8.408;2023-07-29T08:05:24;100038.38;;;20.50;97.45
69173;BME280;56280;49.662;8.408;2023-07-29T08:07:49;100049.00;;;20.58;96.19
69173;BME280;56280;49.662;8.408;2023-07-29T08:10:15;100056.34;;;20.65;96.57
69173;BME280;56280;49.662;8.408;2023-07-29T08:12:40;100049.34;;;20.77;96.93
69173;BME280;56280;49.662;8.408;2023-07-29T08:15:05;100024.50;;;20.53;96.06
69173;BME280;56280;49.662;8.408;2023-07-29T08:17:33;100042.88;;;20.71;96.33
69173;BME280;56280;49.662;8.408;2023-07-29T08:19:59;100051.28;;;21.03;96.20
69173;BME280;56280;49.662;8.408;2023-07-29T08:22:24;100041.16;;;21.32;99.53
69173;BME280;56280;49.662;8.408;2023-07-29T08:24:49;100042.47;;;21.70;99.05
69173;BME280;56280;49.662;8.408;2023-07-29T08:27:14;100065.06;;;22.42;97.96
69173;BME280;56280;49.662;8.408;2023-07-29T08:29:40;100031.97;;;22.40;93.82
69173;BME280;56280;49.662;8.408;2023-07-29T08:32:05;100034.00;;;22.51;93.46
69173;BME280;56280;49.662;8.408;2023-07-29T08:34:30;100041.56;;;22.88;93.74
69173;BME280;56280;49.662;8.408;2023-07-29T08:36:56;100019.00;;;23.01;90.79
69173;BME280;56280;49.662;8.408;2023-07-29T08:39:21;100015.72;;;23.56;89.89
69173;BME280;56280;49.662;8.408;2023-07-29T08:42:03;99997.06;;;23.91;88.63
69173;BME280;56280;49.662;8.408;2023-07-29T08:44:40;100009.44;;;24.24;86.00
69173;BME280;56280;49.662;8.408;2023-07-29T08:47:06;100000.91;;;24.39;85.46
69173;BME280;56280;49.662;8.408;2023-07-29T08:49:32;99999.78;;;24.28;82.26
69173;BME280;56280;49.662;8.408;2023-07-29T08:51:58;100013.94;;;24.49;85.02
69173;BME280;56280;49.662;8.408;2023-07-29T08:54:23;100000.38;;;24.67;83.53
69173;BME280;56280;49.662;8.408;2023-07-29T08:56:49;100025.06;;;24.96;81.06
69173;BME280;56280;49.662;8.408;2023-07-29T08:59:15;100021.44;;;25.02;80.11
69173;BME280;56280;49.662;8.408;2023-07-29T09:01:42;100038.78;;;25.32;78.88
69173;BME280;56280;49.662;8.408;2023-07-29T09:04:08;100044.09;;;24.78;75.73
69173;BME280;56280;49.662;8.408;2023-07-29T09:06:34;100045.41;;;24.56;76.02
69173;BME280;56280;49.662;8.408;2023-07-29T09:09:00;100037.31;;;24.50;76.43
69173;BME280;56280;49.662;8.408;2023-07-29T09:11:26;100045.19;;;24.39;76.42
69173;BME280;56280;49.662;8.408;2023-07-29T09:13:52;100065.03;;;24.59;76.41
69173;BME280;56280;49.662;8.408;2023-07-29T09:16:19;100046.50;;;24.49;75.32
69173;BME280;56280;49.662;8.408;2023-07-29T09:18:47;100035.41;;;24.13;76.04
69173;BME280;56280;49.662;8.408;2023-07-29T09:21:15;100029.94;;;24.38;75.33
69173;BME280;56280;49.662;8.408;2023-07-29T09:23:41;100035.00;;;24.72;75.72
69173;BME280;56280;49.662;8.408;2023-07-29T09:26:07;100027.66;;;24.72;74.35
69173;BME280;56280;49.662;8.408;2023-07-29T09:28:37;100039.84;;;24.70;73.89
69173;BME280;56280;49.662;8.408;2023-07-29T09:31:03;100022.25;;;24.54;74.24
69173;BME280;56280;49.662;8.408;2023-07-29T09:33:32;100044.97;;;24.60;74.20
69173;BME280;56280;49.662;8.408;2023-07-29T09:36:00;100035.19;;;24.52;75.15
69173;BME280;56280;49.662;8.408;2023-07-29T09:38:28;100032.50;;;24.70;75.33
69173;BME280;56280;49.662;8.408;2023-07-29T09:40:57;100019.84;;;25.25;73.89
69173;BME280;56280;49.662;8.408;2023-07-29T09:43:30;100017.44;;;25.59;75.17
69173;BME280;56280;49.662;8.408;2023-07-29T09:46:03;100015.78;;;25.93;73.48
69173;BME280;56280;49.662;8.408;2023-07-29T09:48:32;100018.53;;;26.05;72.29
69173;BME280;56280;49.662;8.408;2023-07-29T09:50:58;100011.66;;;26.26;69.58
69173;BME280;56280;49.662;8.408;2023-07-29T09:53:24;100011.81;;;26.48;68.87
69173;BME280;56280;49.662;8.408;2023-07-29T09:55:49;100000.91;;;26.48;70.12
69173;BME280;56280;49.662;8.408;2023-07-29T09:58:26;100005.78;;;26.46;68.27
69173;BME280;56280;49.662;8.408;2023-07-29T10:00:52;100003.69;;;26.77;68.67
69173;BME280;56280;49.662;8.408;2023-07-29T10:03:20;100007.34;;;27.11;68.24
69173;BME280;56280;49.662;8.408;2023-07-29T10:05:46;99999.16;;;27.11;64.78
69173;BME280;56280;49.662;8.408;2023-07-29T10:08:12;99972.94;;;26.93;65.83
69173;BME280;56280;49.662;8.408;2023-07-29T10:10:43;100006.97;;;27.08;65.89
69173;BME280;56280;49.662;8.408;2023-07-29T10:13:09;100004.78;;;27.05;64.95
69173;BME280;56280;49.662;8.408;2023-07-29T10:15:35;100008.88;;;26.90;65.36
69173;BME280;56280;49.662;8.408;2023-07-29T10:18:02;100021.25;;;26.98;65.04
69173;BME280;56280;49.662;8.408;2023-07-29T10:20:30;100019.94;;;26.72;65.78
69173;BME280;56280;49.662;8.408;2023-07-29T10:22:59;100029.13;;;26.42;66.07
69173;BME280;56280;49.662;8.408;2023-07-29T10:25:33;100026.66;;;26.29;66.82
69173;BME280;56280;49.662;8.408;2023-07-29T10:28:06;100025.59;;;26.30;66.60
69173;BME280;56280;49.662;8.408;2023-07-29T10:30:32;100000.16;;;26.36;68.00
69173;BME280;56280;49.662;8.408;2023-07-29T10:33:02;100005.44;;;26.83;66.60
69173;BME280;56280;49.662;8.408;2023-07-29T10:35:28;99991.38;;;27.03;64.88
69173;BME280;56280;49.662;8.408;2023-07-29T10:37:53;100000.22;;;26.93;64.40
69173;BME280;56280;49.662;8.408;2023-07-29T10:40:20;100012.78;;;27.11;62.48
69173;BME280;56280;49.662;8.408;2023-07-29T10:43:02;100003.91;;;26.87;63.23
69173;BME280;56280;49.662;8.408;2023-07-29T10:45:40;100009.53;;;26.98;61.39
69173;BME280;56280;49.662;8.408;2023-07-29T10:48:08;99994.00;;;26.98;59.55
69173;BME280;56280;49.662;8.408;2023-07-29T10:50:35;99999.00;;;27.18;60.22
69173;BME280;56280;49.662;8.408;2023-07-29T10:53:00;99995.94;;;27.15;59.79
69173;BME280;56280;49.662;8.408;2023-07-29T10:55:33;100006.00;;;27.14;59.64
69173;BME280;56280;49.662;8.408;2023-07-29T10:58:14;99996.81;;;27.66;59.33
69173;BME280;56280;49.662;8.408;2023-07-29T11:00:44;99993.06;;;27.72;59.11
69173;BME280;56280;49.662;8.408;2023-07-29T11:03:11;99980.75;;;27.53;59.70
69173;BME280;56280;49.662;8.408;2023-07-29T11:05:48;99986.84;;;27.77;61.44
69173;BME280;56280;49.662;8.408;2023-07-29T11:08:21;99972.72;;;27.97;61.22
69173;BME280;56280;49.662;8.408;2023-07-29T11:13:33;99977.16;;;28.03;57.72
69173;BME280;56280;49.662;8.408;2023-07-29T11:15:59;99949.75;;;27.76;55.16
69173;BME280;56280;49.662;8.408;2023-07-29T11:18:29;99964.56;;;27.63;53.86
69173;BME280;56280;49.662;8.408;2023-07-29T11:20:56;99954.31;;;27.53;53.90
69173;BME280;56280;49.662;8.408;2023-07-29T11:23:33;99975.97;;;27.60;54.13
69173;BME280;56280;49.662;8.408;2023-07-29T11:26:00;99965.81;;;27.55;53.05
69173;BME280;56280;49.662;8.408;2023-07-29T11:28:27;99968.84;;;27.25;52.70
69173;BME280;56280;49.662;8.408;2023-07-29T11:30:54;99971.50;;;27.20;52.52
69173;BME280;56280;49.662;8.408;2023-07-29T11:33:24;99963.16;;;27.43;53.45
69173;BME280;56280;49.662;8.408;2023-07-29T11:35:50;99944.84;;;27.39;52.88
69173;BME280;56280;49.662;8.408;2023-07-29T11:38:17;99965.88;;;27.60;53.15
69173;BME280;56280;49.662;8.408;2023-07-29T11:40:42;99949.44;;;27.55;51.65
69173;BME280;56280;49.662;8.408;2023-07-29T11:43:08;99952.84;;;27.45;51.74
69173;BME280;56280;49.662;8.408;2023-07-29T11:45:33;99945.63;;;27.56;51.59
69173;BME280;56280;49.662;8.408;2023-07-29T11:48:01;99971.19;;;27.50;51.10
69173;BME280;56280;49.662;8.408;2023-07-29T11:50:26;99957.13;;;27.58;50.84
69173;BME280;56280;49.662;8.408;2023-07-29T11:52:52;99956.94;;;27.48;49.15
69173;BME280;56280;49.662;8.408;2023-07-29T11:55:17;99958.44;;;27.73;49.28
69173;BME280;56280;49.662;8.408;2023-07-29T11:57:44;99966.88;;;27.71;49.28
69173;BME280;56280;49.662;8.408;2023-07-29T12:00:10;99980.25;;;27.73;49.24
69173;BME280;56280;49.662;8.408;2023-07-29T12:02:38;99965.88;;;27.60;50.19
69173;BME280;56280;49.662;8.408;2023-07-29T12:05:05;99970.16;;;27.56;48.45
69173;BME280;56280;49.662;8.408;2023-07-29T12:07:31;99959.84;;;27.24;48.33
69173;BME280;56280;49.662;8.408;2023-07-29T12:09:57;99938.69;;;27.32;47.29
69173;BME280;56280;49.662;8.408;2023-07-29T12:12:22;99948.81;;;27.19;47.41
69173;BME280;56280;49.662;8.408;2023-07-29T12:14:48;99949.69;;;27.54;46.92
69173;BME280;56280;49.662;8.408;2023-07-29T12:17:14;99964.16;;;27.54;47.65
69173;BME280;56280;49.662;8.408;2023-07-29T12:19:40;99970.09;;;27.68;47.75
69173;BME280;56280;49.662;8.408;2023-07-29T12:22:08;99961.00;;;27.62;46.74
69173;BME280;56280;49.662;8.408;2023-07-29T12:24:36;99949.69;;;27.37;48.00
69173;BME280;56280;49.662;8.408;2023-07-29T12:27:02;99969.56;;;27.20;47.69
69173;BME280;56280;49.662;8.408;2023-07-29T12:29:28;99983.09;;;27.44;47.84
69173;BME280;56280;49.662;8.408;2023-07-29T12:32:03;99965.38;;;27.63;48.18
69173;BME280;56280;49.662;8.408;2023-07-29T12:34:30;99971.50;;;27.54;44.95
69173;BME280;56280;49.662;8.408;2023-07-29T12:36:57;99978.44;;;27.61;45.54
69173;BME280;56280;49.662;8.408;2023-07-29T12:39:24;99981.75;;;27.46;44.56
69173;BME280;56280;49.662;8.408;2023-07-29T12:41:51;99971.19;;;27.33;45.72
69173;BME280;56280;49.662;8.408;2023-07-29T12:44:17;99972.81;;;27.68;43.57
69173;BME280;56280;49.662;8.408;2023-07-29T12:46:43;99962.09;;;27.61;45.74
69173;BME280;56280;49.662;8.408;2023-07-29T12:49:08;99974.19;;;27.71;45.42
69173;BME280;56280;49.662;8.408;2023-07-29T12:51:33;99967.38;;;27.51;44.36
69173;BME280;56280;49.662;8.408;2023-07-29T12:54:00;99975.06;;;27.54;44.78
69173;BME280;56280;49.662;8.408;2023-07-29T12:56:25;99979.00;;;27.29;44.15